createdAt,value
2018-06-15T00:02:22.077Z,46.97
2018-06-15T00:04:51.071Z,46.30
2018-06-15T00:07:19.891Z,46.83
2018-06-15T00:09:48.760Z,45.17
2018-06-15T00:12:17.654Z,54.48
2018-06-15T00:14:46.532Z,47.07
2018-06-15T00:17:15.375Z,45.77
2018-06-15T00:19:44.253Z,43.27
2018-06-15T00:22:13.144Z,43.47
2018-06-15T00:24:42.028Z,45.50
2018-06-15T00:27:10.879Z,43.87
2018-06-15T00:29:39.740Z,44.67
2018-06-15T00:32:08.621Z,42.50
2018-06-15T00:34:37.500Z,44.73
2018-06-15T00:37:06.388Z,44.87
2018-06-15T00:39:35.260Z,44.50
2018-06-15T00:42:04.149Z,43.47
2018-06-15T00:44:33.049Z,44.73
2018-06-15T00:47:01.933Z,43.77
2018-06-15T00:49:30.827Z,41.70
2018-06-15T00:51:59.730Z,44.10
2018-06-15T00:54:28.619Z,43.10
2018-06-15T00:57:33.869Z,42.73
2018-06-15T01:00:02.752Z,43.30
2018-06-15T01:02:31.625Z,44.87
2018-06-15T01:05:00.539Z,46.27
2018-06-15T01:07:29.346Z,56.08
2018-06-15T01:09:58.222Z,43.87
2018-06-15T01:12:27.082Z,44.33
2018-06-15T01:14:55.940Z,46.07
2018-06-15T01:17:24.776Z,43.33
2018-06-15T01:19:53.679Z,45.53
2018-06-15T01:22:22.560Z,45.87
2018-06-15T01:24:51.450Z,50.03
2018-06-15T01:27:20.344Z,49.60
2018-06-15T01:29:49.222Z,49.00
2018-06-15T01:32:18.120Z,60.48
2018-06-15T01:34:47.008Z,51.57
2018-06-15T01:37:15.896Z,48.63
2018-06-15T01:39:44.772Z,47.23
2018-06-15T01:42:13.627Z,61.80
2018-06-15T01:44:42.495Z,46.83
2018-06-15T01:47:11.381Z,46.70
2018-06-15T01:49:40.290Z,48.60
2018-06-15T01:52:09.207Z,48.43
2018-06-15T01:54:38.100Z,49.23
2018-06-15T01:57:06.974Z,50.57
2018-06-15T01:59:35.865Z,48.43
2018-06-15T02:02:04.729Z,50.37
2018-06-15T02:04:33.576Z,49.93
2018-06-15T02:07:02.484Z,52.63
2018-06-15T02:09:31.410Z,53.87
2018-06-15T02:12:00.278Z,52.97
2018-06-15T02:14:29.155Z,52.70
2018-06-15T02:16:58.032Z,54.00
2018-06-15T02:19:26.882Z,67.00
2018-06-15T02:21:55.749Z,54.53
2018-06-15T02:24:24.629Z,54.47
2018-06-15T02:26:53.496Z,51.80
2018-06-15T02:29:22.403Z,52.27
2018-06-15T02:31:51.252Z,55.07
2018-06-15T02:34:20.126Z,66.85
2018-06-15T02:36:49.011Z,53.13
2018-06-15T02:39:17.849Z,53.20
2018-06-15T02:41:46.686Z,54.93
2018-06-15T02:44:15.565Z,56.20
2018-06-15T02:46:44.456Z,54.70
2018-06-15T02:49:13.326Z,54.17
2018-06-15T02:51:42.192Z,53.80
2018-06-15T02:54:11.072Z,54.57
2018-06-15T02:56:39.913Z,54.67
2018-06-15T02:59:08.815Z,55.17
2018-06-15T03:01:37.680Z,56.23
2018-06-15T03:04:06.551Z,54.67
2018-06-15T03:06:35.466Z,52.90
2018-06-15T03:09:05.846Z,55.47
2018-06-15T03:11:34.750Z,52.97
2018-06-15T03:14:03.681Z,58.43
2018-06-15T03:16:32.574Z,57.87
2018-06-15T03:19:01.477Z,57.30
2018-06-15T03:21:30.365Z,57.83
2018-06-15T03:23:59.202Z,59.63
2018-06-15T03:26:28.078Z,56.30
2018-06-15T03:28:56.930Z,56.97
2018-06-15T03:31:25.824Z,56.13
2018-06-15T03:33:54.864Z,55.83
2018-06-15T03:36:23.755Z,55.20
2018-06-15T03:38:52.638Z,54.50
2018-06-15T03:41:21.492Z,52.30
2018-06-15T03:43:50.361Z,57.17
2018-06-15T03:46:19.278Z,52.80
2018-06-15T03:48:48.323Z,66.42
2018-06-15T03:51:17.203Z,53.70
2018-06-15T03:53:46.070Z,52.47
2018-06-15T03:56:14.965Z,52.87
2018-06-15T03:58:43.823Z,55.07
2018-06-15T04:01:12.672Z,55.70
2018-06-15T04:03:41.549Z,56.93
2018-06-15T04:06:10.406Z,57.77
2018-06-15T04:08:39.242Z,60.37
2018-06-15T04:11:08.081Z,59.13
2018-06-15T04:13:37.062Z,59.10
2018-06-15T04:16:05.990Z,60.60
2018-06-15T04:18:34.899Z,58.23
2018-06-15T04:21:03.766Z,61.37
2018-06-15T04:23:32.625Z,61.20
2018-06-15T04:26:01.500Z,60.53
2018-06-15T04:28:30.350Z,59.27
2018-06-15T04:30:59.192Z,60.63
2018-06-15T04:33:28.073Z,59.40
2018-06-15T04:35:57.026Z,63.20
2018-06-15T04:38:25.850Z,63.57
2018-06-15T04:40:54.759Z,78.75
2018-06-15T04:43:23.656Z,80.77
2018-06-15T04:45:52.559Z,62.07
2018-06-15T04:48:21.400Z,60.07
2018-06-15T04:50:50.278Z,59.50
2018-06-15T04:53:19.132Z,59.30
2018-06-15T04:55:48.003Z,59.83
2018-06-15T04:58:16.854Z,59.27
2018-06-15T05:00:45.719Z,58.33
2018-06-15T05:03:15.187Z,60.97
2018-06-15T05:05:44.844Z,59.00
2018-06-15T05:08:13.732Z,74.80
2018-06-15T05:10:42.604Z,60.93
2018-06-15T05:13:11.745Z,59.60
2018-06-15T05:15:40.646Z,58.27
2018-06-15T05:18:09.465Z,58.37
2018-06-15T05:20:38.301Z,56.93
2018-06-15T05:23:07.159Z,56.80
2018-06-15T05:25:36.033Z,57.97
2018-06-15T05:28:04.903Z,56.87
2018-06-15T05:30:33.737Z,56.23
2018-06-15T05:33:02.641Z,57.13
2018-06-15T05:35:31.500Z,57.77
2018-06-15T05:38:00.361Z,56.47
2018-06-15T05:40:29.196Z,56.53
2018-06-15T05:42:58.063Z,56.53
2018-06-15T05:45:26.968Z,55.80
2018-06-15T05:47:55.840Z,57.93
2018-06-15T05:50:24.675Z,56.17
2018-06-15T05:52:53.524Z,58.53
2018-06-15T05:55:22.436Z,54.90
2018-06-15T05:57:51.272Z,55.87
2018-06-15T06:00:20.307Z,55.83
2018-06-15T06:02:49.170Z,55.37
2018-06-15T06:05:18.013Z,55.77
2018-06-15T06:07:46.891Z,51.27
2018-06-15T06:10:15.793Z,50.63
2018-06-15T06:12:44.673Z,52.80
2018-06-15T06:15:13.565Z,51.43
2018-06-15T06:17:42.543Z,52.37
2018-06-15T06:20:11.579Z,54.13
2018-06-15T06:22:40.438Z,55.07
2018-06-15T06:25:09.382Z,53.27
2018-06-15T06:27:38.266Z,52.03
2018-06-15T06:30:07.167Z,53.40
2018-06-15T06:32:36.103Z,51.97
2018-06-15T06:35:04.944Z,51.10
2018-06-15T06:37:33.851Z,51.73
2018-06-15T06:40:02.763Z,51.13
2018-06-15T06:42:31.663Z,50.93
2018-06-15T06:45:00.548Z,50.33
2018-06-15T06:47:29.433Z,49.10
2018-06-15T06:49:58.338Z,51.03
2018-06-15T06:52:27.217Z,52.03
2018-06-15T06:54:56.102Z,51.93
2018-06-15T06:57:24.956Z,50.63
2018-06-15T06:59:53.811Z,50.33
2018-06-15T07:02:22.669Z,50.63
2018-06-15T07:04:51.565Z,49.80
2018-06-15T07:07:20.490Z,49.07
2018-06-15T07:09:49.372Z,49.83
2018-06-15T07:12:18.292Z,47.77
2018-06-15T07:14:47.146Z,50.23
2018-06-15T07:17:16.025Z,48.17
2018-06-15T07:19:44.903Z,50.27
2018-06-15T07:22:13.792Z,45.27
2018-06-15T07:24:42.695Z,50.00
2018-06-15T07:27:11.573Z,48.30
2018-06-15T07:29:40.475Z,48.20
2018-06-15T07:32:09.457Z,49.87
2018-06-15T07:34:38.332Z,48.80
2018-06-15T07:37:07.342Z,56.28
2018-06-15T07:39:36.264Z,50.50
2018-06-15T07:42:05.222Z,56.83
2018-06-15T07:44:34.426Z,49.90
2018-06-15T07:47:03.717Z,46.83
2018-06-15T07:49:32.593Z,45.43
2018-06-15T07:52:01.454Z,46.73
2018-06-15T07:54:30.356Z,46.17
2018-06-15T07:56:59.297Z,46.87
2018-06-15T07:59:28.215Z,45.63
2018-06-15T08:01:57.060Z,43.87
2018-06-15T08:04:25.993Z,44.17
2018-06-15T08:06:54.852Z,50.17
2018-06-15T08:09:23.763Z,45.13
2018-06-15T08:11:52.627Z,41.60
2018-06-15T08:14:21.465Z,41.53
2018-06-15T08:16:50.306Z,43.20
2018-06-15T08:19:19.139Z,39.43
2018-06-15T08:21:47.991Z,43.23
2018-06-15T08:24:16.821Z,42.63
2018-06-15T08:26:45.676Z,43.00
2018-06-15T08:29:14.528Z,43.00
2018-06-15T08:31:43.367Z,38.60
2018-06-15T08:34:12.411Z,39.87
2018-06-15T08:36:43.042Z,37.63
2018-06-15T08:39:16.261Z,35.52
2018-06-15T08:41:45.067Z,32.10
2018-06-15T08:44:13.931Z,31.77
2018-06-15T08:46:42.832Z,32.67
2018-06-15T08:49:11.673Z,31.33
2018-06-15T08:51:40.508Z,31.57
2018-06-15T08:54:09.447Z,32.67
2018-06-15T08:56:38.313Z,31.93
2018-06-15T08:59:07.181Z,32.15
2018-06-15T09:01:36.045Z,32.33
2018-06-15T09:04:04.914Z,30.60
2018-06-15T09:06:33.749Z,31.97
2018-06-15T09:09:02.625Z,31.05
2018-06-15T09:11:31.508Z,32.23
2018-06-15T09:14:00.393Z,31.67
2018-06-15T09:16:29.253Z,32.53
2018-06-15T09:18:58.126Z,33.07
2018-06-15T09:21:26.988Z,34.60
2018-06-15T09:23:55.927Z,34.87
2018-06-15T09:26:24.824Z,39.05
2018-06-15T09:28:53.687Z,40.52
2018-06-15T09:31:22.641Z,35.00
2018-06-15T09:33:51.490Z,34.77
2018-06-15T09:36:20.414Z,32.50
2018-06-15T09:38:49.281Z,33.00
2018-06-15T09:41:18.132Z,30.07
2018-06-15T09:43:47.021Z,30.40
2018-06-15T09:46:15.929Z,29.97
2018-06-15T09:48:45.343Z,29.30
2018-06-15T09:51:15.516Z,29.40
2018-06-15T09:53:44.239Z,30.02
2018-06-15T09:56:13.279Z,30.50
2018-06-15T09:58:42.777Z,28.17
2018-06-15T10:01:11.986Z,26.82
2018-06-15T10:03:41.223Z,26.97
2018-06-15T10:06:10.181Z,26.48
2018-06-15T10:08:39.023Z,25.43
2018-06-15T10:11:07.892Z,26.02
2018-06-15T10:13:36.727Z,26.27
2018-06-15T10:16:05.747Z,24.00
2018-06-15T10:18:34.589Z,22.25
2018-06-15T10:21:03.489Z,23.10
2018-06-15T10:23:32.338Z,23.40
2018-06-15T10:26:01.197Z,20.20
2018-06-15T10:28:30.080Z,19.95
2018-06-15T10:30:58.938Z,17.95
2018-06-15T10:33:27.801Z,19.32
2018-06-15T10:35:57.043Z,17.80
2018-06-15T10:38:25.985Z,20.57
2018-06-15T10:40:54.851Z,13.65
2018-06-15T10:43:23.731Z,13.30
2018-06-15T10:45:52.599Z,15.55
2018-06-15T10:48:21.485Z,16.73
2018-06-15T10:50:50.410Z,17.87
2018-06-15T10:53:19.213Z,19.65
2018-06-15T10:55:48.078Z,19.92
2018-06-15T10:58:17.003Z,15.48
2018-06-15T11:00:45.862Z,16.95
2018-06-15T11:03:14.712Z,16.70
2018-06-15T11:05:43.621Z,15.20
2018-06-15T11:08:12.543Z,15.35
2018-06-15T11:10:41.433Z,14.18
2018-06-15T11:13:10.266Z,15.93
2018-06-15T11:15:39.131Z,16.65
2018-06-15T11:18:07.972Z,13.60
2018-06-15T11:20:36.861Z,13.53
2018-06-15T11:23:05.741Z,11.35
2018-06-15T11:25:34.673Z,13.35
2018-06-15T11:28:03.516Z,13.62
2018-06-15T11:30:32.366Z,14.43
2018-06-15T11:33:01.281Z,14.28
2018-06-15T11:35:30.180Z,16.40
2018-06-15T11:37:59.061Z,15.00
2018-06-15T11:40:28.060Z,10.43
2018-06-15T11:42:56.941Z,11.83
2018-06-15T11:45:25.893Z,12.70
2018-06-15T11:47:54.845Z,13.48
2018-06-15T11:50:23.864Z,13.75
2018-06-15T11:52:53.051Z,13.72
2018-06-15T11:55:21.966Z,12.45
2018-06-15T11:57:53.902Z,12.55
2018-06-15T12:00:22.788Z,12.05
2018-06-15T12:02:51.703Z,14.75
2018-06-15T12:05:20.603Z,15.43
2018-06-15T12:07:49.517Z,14.28
2018-06-15T12:10:18.369Z,14.47
2018-06-15T12:12:47.275Z,12.68
2018-06-15T12:15:16.153Z,12.78
2018-06-15T12:17:45.032Z,13.08
2018-06-15T12:20:13.902Z,11.83
2018-06-15T12:22:42.759Z,10.80
2018-06-15T12:25:11.610Z,10.65
2018-06-15T12:27:40.687Z,10.80
2018-06-15T12:30:09.624Z,12.55
2018-06-15T12:32:38.574Z,10.58
2018-06-15T12:35:07.489Z,9.80
2018-06-15T12:37:36.380Z,9.38
2018-06-15T12:40:05.363Z,9.85
2018-06-15T12:42:34.251Z,12.00
2018-06-15T12:45:03.206Z,11.45
2018-06-15T12:47:32.032Z,10.13
2018-06-15T12:50:01.509Z,11.85
2018-06-15T12:52:30.917Z,9.33
2018-06-15T12:55:00.151Z,8.38
2018-06-15T12:57:29.333Z,8.63
2018-06-15T12:59:58.415Z,11.40
2018-06-15T13:02:27.957Z,10.85
2018-06-15T13:04:57.213Z,11.60
2018-06-15T13:07:26.484Z,12.10
2018-06-15T13:09:55.662Z,11.45
2018-06-15T13:12:24.892Z,11.30
2018-06-15T13:14:54.027Z,8.73
2018-06-15T13:17:25.288Z,8.13
2018-06-15T13:19:57.651Z,11.08
2018-06-15T13:22:26.739Z,8.85
2018-06-15T13:24:55.936Z,8.03
2018-06-15T13:27:25.044Z,13.75
2018-06-15T13:29:54.124Z,10.90
2018-06-15T13:32:23.556Z,11.93
2018-06-15T13:34:52.683Z,9.98
2018-06-15T13:37:22.753Z,9.23
2018-06-15T13:39:52.120Z,9.40
2018-06-15T13:42:23.806Z,9.30
2018-06-15T13:44:53.109Z,8.20
2018-06-15T13:47:22.267Z,8.60
2018-06-15T13:49:51.539Z,12.53
2018-06-15T13:52:20.555Z,12.10
2018-06-15T13:54:52.715Z,12.40
2018-06-15T13:57:21.757Z,11.00
2018-06-15T13:59:51.353Z,12.58
2018-06-15T14:02:20.252Z,11.55
2018-06-15T14:04:49.567Z,9.03
2018-06-15T14:07:21.351Z,8.88
2018-06-15T14:09:50.707Z,8.93
2018-06-15T14:12:19.814Z,7.92
2018-06-15T14:14:48.920Z,7.22
2018-06-15T14:17:18.022Z,7.83
2018-06-15T14:19:47.109Z,6.40
2018-06-15T14:22:17.061Z,7.55
2018-06-15T14:24:46.498Z,8.70
2018-06-15T14:27:15.569Z,9.48
2018-06-15T14:29:44.923Z,9.00
2018-06-15T14:32:14.263Z,8.00
2018-06-15T14:34:44.573Z,9.28
2018-06-15T14:37:16.539Z,10.23
2018-06-15T14:39:42.692Z,9.95
2018-06-15T14:46:18.135Z,9.93
2018-06-15T14:49:30.036Z,7.80
2018-06-15T14:52:23.232Z,977.95
2018-06-15T14:55:22.233Z,940.72
2018-06-15T14:58:11.581Z,226.88
2018-06-15T15:01:00.482Z,999.90
2018-06-15T15:03:44.208Z,999.90
2018-06-15T15:06:20.529Z,999.90
2018-06-15T15:09:10.302Z,999.90
2018-06-15T15:11:56.381Z,876.95
2018-06-15T15:14:38.243Z,978.80
2018-06-15T15:17:26.745Z,15.32
2018-06-15T15:19:57.634Z,12.75
2018-06-15T15:22:37.947Z,10.75
2018-06-15T15:25:10.519Z,8.98
2018-06-15T15:27:54.991Z,6.47
2018-06-15T15:30:43.388Z,9.45
2018-06-15T15:33:36.026Z,11.45
2018-06-15T15:36:26.031Z,10.35
2018-06-15T15:39:12.125Z,9.35
2018-06-15T15:42:00.274Z,9.13
2018-06-15T15:44:37.491Z,19.07
2018-06-15T15:47:18.090Z,19.27
2018-06-15T15:49:58.918Z,72.17
2018-06-15T15:52:31.388Z,16.65
2018-06-15T15:55:02.850Z,34.15
2018-06-15T15:58:06.578Z,23.38
2018-06-15T16:01:01.698Z,10.23
2018-06-15T16:03:41.353Z,610.23
2018-06-15T16:06:23.813Z,708.10
2018-06-15T16:09:00.661Z,812.12
2018-06-15T16:11:42.831Z,999.90
2018-06-15T16:14:14.635Z,842.42
2018-06-15T16:16:51.825Z,118.65
2018-06-15T16:19:45.447Z,85.35
2018-06-15T16:22:43.186Z,92.25
2018-06-15T16:25:25.365Z,23.12
2018-06-15T16:27:59.997Z,13.22
2018-06-15T16:30:34.984Z,16.80
2018-06-15T16:33:08.508Z,105.32
2018-06-15T16:38:44.792Z,86.20
2018-06-15T16:41:13.980Z,52.10
2018-06-15T16:43:43.430Z,15.13
2018-06-15T16:46:12.713Z,10.32
2018-06-15T16:48:42.135Z,22.10
2018-06-15T16:51:11.435Z,11.00
2018-06-15T16:53:42.079Z,18.98
2018-06-15T16:56:11.268Z,581.03
2018-06-15T16:58:40.669Z,673.90
2018-06-15T17:01:10.082Z,872.20
2018-06-15T17:03:39.403Z,287.85
2018-06-15T17:06:08.809Z,529.20
2018-06-15T17:08:38.168Z,126.00
2018-06-15T17:11:07.465Z,736.57
2018-06-15T17:13:39.046Z,537.62
2018-06-15T17:16:08.665Z,584.60
2018-06-15T17:18:38.220Z,195.68
2018-06-15T17:21:07.295Z,353.52
2018-06-15T17:23:36.432Z,395.30
2018-06-15T17:26:05.600Z,413.95
2018-06-15T17:28:35.023Z,197.85
2018-06-15T17:31:06.343Z,188.47
2018-06-15T17:33:35.556Z,256.97
2018-06-15T17:36:04.775Z,323.23
2018-06-15T17:38:34.295Z,39.13
2018-06-15T17:41:03.802Z,47.62
2018-06-15T17:43:33.016Z,163.70
2018-06-15T17:46:05.278Z,238.72
2018-06-15T17:48:34.745Z,163.12
2018-06-15T17:51:05.374Z,513.20
2018-06-15T17:53:34.397Z,88.67
2018-06-15T17:56:06.335Z,163.12
2018-06-15T17:58:35.821Z,45.10
2018-06-15T18:01:05.667Z,37.30
2018-06-15T18:03:35.075Z,29.77
2018-06-15T18:06:04.205Z,26.20
2018-06-15T18:08:33.479Z,45.87
2018-06-15T18:11:02.789Z,18.50
2018-06-15T18:13:32.042Z,59.40
2018-06-15T18:16:01.352Z,16.27
2018-06-15T18:18:30.621Z,12.20
2018-06-15T18:21:00.055Z,11.10
2018-06-15T18:23:29.057Z,125.87
2018-06-15T18:25:58.326Z,83.07
2018-06-15T18:28:27.660Z,11.08
2018-06-15T18:30:56.850Z,351.37
2018-06-15T18:33:26.737Z,66.00
2018-06-15T18:35:59.542Z,922.00
2018-06-15T18:38:28.937Z,526.85
2018-06-15T18:41:00.830Z,42.50
2018-06-15T18:43:30.089Z,50.00
2018-06-15T18:45:59.300Z,47.17
2018-06-15T18:48:28.631Z,36.97
2018-06-15T18:50:57.681Z,10.37
2018-06-15T18:53:27.203Z,10.50
2018-06-15T18:55:58.122Z,9.25
2018-06-15T18:58:27.599Z,9.13
2018-06-15T19:00:57.271Z,9.33
2018-06-15T19:03:26.670Z,8.80
2018-06-15T19:06:01.033Z,15.30
2018-06-15T19:08:30.523Z,9.07
2018-06-15T19:10:59.644Z,15.40
2018-06-15T19:13:29.264Z,9.03
2018-06-15T19:15:59.071Z,9.07
2018-06-15T19:18:28.553Z,82.87
2018-06-15T19:20:59.322Z,12.78
2018-06-15T19:23:28.683Z,9.17
2018-06-15T19:25:57.877Z,9.90
2018-06-15T19:28:27.031Z,8.67
2018-06-15T19:30:56.166Z,22.07
2018-06-15T19:33:25.365Z,33.87
2018-06-15T19:35:54.798Z,80.43
2018-06-15T19:38:24.218Z,10.07
2018-06-15T19:40:53.663Z,9.30
2018-06-15T19:43:22.890Z,100.07
2018-06-15T19:45:54.679Z,123.00
2018-06-15T19:48:24.503Z,23.73
2018-06-15T19:50:53.770Z,11.70
2018-06-15T19:53:22.951Z,39.13
2018-06-15T19:55:52.302Z,17.17
2018-06-15T19:58:21.518Z,18.33
2018-06-15T20:00:50.642Z,14.30
2018-06-15T20:03:19.715Z,12.40
2018-06-15T20:05:49.272Z,23.87
2018-06-15T20:08:18.419Z,10.20
2018-06-15T20:10:47.707Z,9.57
2018-06-15T20:13:16.685Z,9.70
2018-06-15T20:15:46.022Z,10.67
2018-06-15T20:18:15.394Z,11.67
2018-06-15T20:20:47.646Z,12.20
2018-06-15T20:23:17.163Z,10.83
2018-06-15T20:25:48.751Z,10.60
2018-06-15T20:28:18.281Z,10.83
2018-06-15T20:30:47.693Z,11.60
2018-06-15T20:33:16.505Z,10.37
2018-06-15T20:35:45.419Z,10.57
2018-06-15T20:38:14.308Z,10.93
2018-06-15T20:40:43.200Z,10.97
2018-06-15T20:43:12.376Z,11.13
2018-06-15T20:45:41.223Z,11.50
2018-06-15T20:48:10.072Z,10.87
2018-06-15T20:50:39.069Z,11.40
2018-06-15T20:53:07.950Z,11.33
2018-06-15T20:55:43.083Z,10.70
2018-06-15T20:58:11.979Z,11.27
2018-06-15T21:00:40.849Z,11.47
2018-06-15T21:03:09.714Z,12.27
2018-06-15T21:05:38.650Z,10.90
2018-06-15T21:08:07.585Z,10.70
2018-06-15T21:10:36.812Z,11.23
2018-06-15T21:13:05.970Z,10.73
2018-06-15T21:15:34.890Z,11.30
2018-06-15T21:18:03.863Z,11.40
2018-06-15T21:20:32.733Z,12.93
2018-06-15T21:23:01.641Z,11.27
2018-06-15T21:25:33.129Z,10.80
2018-06-15T21:28:01.966Z,11.30
2018-06-15T21:30:30.899Z,10.63
2018-06-15T21:32:59.789Z,10.93
2018-06-15T21:35:28.662Z,10.90
2018-06-15T21:37:57.690Z,10.63
2018-06-15T21:40:26.548Z,11.53
2018-06-15T21:42:55.445Z,13.13
2018-06-15T21:45:24.313Z,16.00
2018-06-15T21:47:53.197Z,13.00
2018-06-15T21:50:22.137Z,12.30
2018-06-15T21:52:51.053Z,13.60
2018-06-15T21:55:20.001Z,12.53
2018-06-15T21:57:48.766Z,12.87
2018-06-15T22:00:17.705Z,14.10
2018-06-15T22:02:46.580Z,13.00
2018-06-15T22:05:15.447Z,14.20
2018-06-15T22:07:44.307Z,13.03
2018-06-15T22:10:13.162Z,13.00
2018-06-15T22:12:42.120Z,20.40
2018-06-15T22:15:11.117Z,12.70
2018-06-15T22:17:40.104Z,12.50
2018-06-15T22:20:11.412Z,12.67
2018-06-15T22:22:40.250Z,12.47
2018-06-15T22:25:09.167Z,12.33
2018-06-15T22:27:38.462Z,13.27
2018-06-15T22:30:07.860Z,13.03
2018-06-15T22:32:36.752Z,17.53
2018-06-15T22:35:05.895Z,13.77
2018-06-15T22:37:34.834Z,12.80
2018-06-15T22:40:03.708Z,11.50
2018-06-15T22:42:34.260Z,12.60
2018-06-15T22:45:03.197Z,12.17
2018-06-15T22:47:32.061Z,12.93
2018-06-15T22:50:00.921Z,13.97
2018-06-15T22:52:29.781Z,13.07
2018-06-15T22:54:58.716Z,13.50
2018-06-15T22:57:27.478Z,13.00
2018-06-15T22:59:56.360Z,13.00
2018-06-15T23:02:25.276Z,12.60
2018-06-15T23:04:57.467Z,12.97
2018-06-15T23:07:26.365Z,14.05
2018-06-15T23:09:55.283Z,12.73
2018-06-15T23:12:24.130Z,13.13
2018-06-15T23:14:52.962Z,12.80
2018-06-15T23:17:21.846Z,14.53
2018-06-15T23:19:50.740Z,13.47
2018-06-15T23:22:19.623Z,23.37
2018-06-15T23:24:48.584Z,16.37
2018-06-15T23:27:23.707Z,15.37
2018-06-15T23:29:52.586Z,14.37
2018-06-15T23:32:21.441Z,13.80
2018-06-15T23:34:50.873Z,13.00
2018-06-15T23:37:19.743Z,15.48
2018-06-15T23:39:48.611Z,13.67
2018-06-15T23:42:17.518Z,13.53
2018-06-15T23:44:46.339Z,13.20
2018-06-15T23:47:15.220Z,12.40
2018-06-15T23:49:47.198Z,15.33
2018-06-15T23:52:16.100Z,12.77
2018-06-15T23:54:44.960Z,13.27
2018-06-15T23:57:13.843Z,12.80
2018-06-15T23:59:42.729Z,13.67
